createdAt,value
2022-11-18T00:00:44.036Z,1.90
2022-11-18T00:03:11.151Z,2.00
2022-11-18T00:05:38.315Z,2.17
2022-11-18T00:08:05.434Z,1.90
2022-11-18T00:10:32.532Z,1.85
2022-11-18T00:13:18.438Z,2.25
2022-11-18T00:15:45.550Z,2.08
2022-11-18T00:18:12.629Z,1.80
2022-11-18T00:20:39.732Z,1.83
2022-11-18T00:23:06.867Z,1.73
2022-11-18T00:25:33.997Z,2.00
2022-11-18T00:28:01.135Z,1.92
2022-11-18T00:30:28.231Z,2.00
2022-11-18T00:32:55.318Z,2.20
2022-11-18T00:35:22.401Z,1.90
2022-11-18T00:37:49.476Z,1.98
2022-11-18T00:40:16.588Z,1.90
2022-11-18T00:42:52.802Z,1.70
2022-11-18T00:45:19.897Z,2.00
2022-11-18T00:47:46.970Z,1.80
2022-11-18T00:50:14.103Z,1.90
2022-11-18T00:52:41.234Z,2.03
2022-11-18T00:55:08.339Z,2.03
2022-11-18T00:57:35.459Z,1.70
2022-11-18T01:00:02.591Z,1.80
2022-11-18T01:02:29.723Z,1.80
2022-11-18T01:04:56.840Z,1.70
2022-11-18T01:07:24.039Z,1.73
2022-11-18T01:09:51.343Z,1.80
2022-11-18T01:12:37.284Z,1.80
2022-11-18T01:15:04.353Z,1.98
2022-11-18T01:17:31.510Z,1.67
2022-11-18T01:19:58.640Z,1.90
2022-11-18T01:22:25.787Z,1.73
2022-11-18T01:24:52.988Z,1.85
2022-11-18T01:27:20.094Z,1.83
2022-11-18T01:29:47.181Z,1.77
2022-11-18T01:32:29.567Z,1.65
2022-11-18T01:34:56.651Z,1.80
2022-11-18T01:37:23.766Z,1.60
2022-11-18T01:39:50.847Z,1.52
2022-11-18T01:42:17.963Z,1.77
2022-11-18T01:44:45.119Z,1.70
2022-11-18T01:47:12.257Z,1.63
2022-11-18T01:49:39.431Z,1.80
2022-11-18T01:52:06.535Z,1.65
2022-11-18T01:54:33.603Z,1.52
2022-11-18T01:57:00.713Z,2.00
2022-11-18T01:59:28.119Z,1.80
2022-11-18T02:01:59.501Z,1.80
2022-11-18T02:04:26.999Z,1.80
2022-11-18T02:06:54.164Z,1.73
2022-11-18T02:09:21.448Z,1.65
2022-11-18T02:11:51.408Z,1.83
2022-11-18T02:14:19.693Z,1.90
2022-11-18T02:16:46.867Z,1.40
2022-11-18T02:19:14.005Z,1.80
2022-11-18T02:21:41.156Z,1.73
2022-11-18T02:24:08.301Z,1.70
2022-11-18T02:26:35.530Z,1.80
2022-11-18T02:29:02.646Z,1.70
2022-11-18T02:31:29.789Z,1.63
2022-11-18T02:33:56.871Z,1.67
2022-11-18T02:36:23.991Z,1.70
2022-11-18T02:38:51.096Z,1.52
2022-11-18T02:41:18.195Z,1.75
2022-11-18T02:43:45.306Z,1.85
2022-11-18T02:46:12.435Z,1.77
2022-11-18T02:48:39.589Z,1.55
2022-11-18T02:51:06.725Z,1.70
2022-11-18T02:53:33.819Z,1.80
2022-11-18T02:56:00.944Z,1.95
2022-11-18T02:58:28.090Z,1.60
2022-11-18T03:00:55.243Z,1.67
2022-11-18T03:03:22.318Z,1.83
2022-11-18T03:05:49.582Z,1.90
2022-11-18T03:08:16.722Z,1.70
2022-11-18T03:10:43.806Z,1.67
2022-11-18T03:13:10.919Z,1.70
2022-11-18T03:15:38.062Z,1.65
2022-11-18T03:18:05.139Z,1.73
2022-11-18T03:20:32.348Z,1.80
2022-11-18T03:22:59.577Z,1.60
2022-11-18T03:25:26.732Z,1.60
2022-11-18T03:27:53.842Z,1.40
2022-11-18T03:30:20.933Z,1.60
2022-11-18T03:32:48.047Z,1.67
2022-11-18T03:35:15.177Z,1.50
2022-11-18T03:37:42.323Z,1.60
2022-11-18T03:40:09.531Z,1.60
2022-11-18T03:42:36.719Z,1.55
2022-11-18T03:45:03.867Z,1.70
2022-11-18T03:47:30.958Z,1.58
2022-11-18T03:49:58.078Z,1.65
2022-11-18T03:52:25.207Z,1.58
2022-11-18T03:54:52.300Z,1.60
2022-11-18T03:57:19.382Z,1.40
2022-11-18T03:59:46.517Z,1.83
2022-11-18T04:02:13.664Z,1.60
2022-11-18T04:04:40.847Z,1.75
2022-11-18T04:07:08.095Z,1.70
2022-11-18T04:09:35.966Z,1.60
2022-11-18T04:12:03.070Z,1.52
2022-11-18T04:14:30.191Z,1.70
2022-11-18T04:16:57.263Z,1.50
2022-11-18T04:19:24.490Z,1.40
2022-11-18T04:21:51.706Z,1.70
2022-11-18T04:24:18.854Z,1.58
2022-11-18T04:26:45.948Z,1.30
2022-11-18T04:29:13.072Z,1.50
2022-11-18T04:31:40.306Z,1.40
2022-11-18T04:34:07.450Z,1.58
2022-11-18T04:36:34.552Z,1.52
2022-11-18T04:39:01.650Z,1.50
2022-11-18T04:41:47.342Z,1.38
2022-11-18T04:44:14.431Z,1.58
2022-11-18T04:46:41.646Z,1.50
2022-11-18T04:49:08.735Z,1.60
2022-11-18T04:51:35.817Z,1.40
2022-11-18T04:54:02.903Z,1.40
2022-11-18T04:56:30.008Z,1.38
2022-11-18T04:58:57.135Z,1.50
2022-11-18T05:01:24.404Z,1.42
2022-11-18T05:03:51.606Z,1.45
2022-11-18T05:06:18.759Z,1.50
2022-11-18T05:08:45.908Z,1.27
2022-11-18T05:11:31.815Z,1.50
2022-11-18T05:13:58.928Z,1.45
2022-11-18T05:16:25.996Z,1.50
2022-11-18T05:18:53.127Z,1.40
2022-11-18T05:21:20.288Z,1.60
2022-11-18T05:23:47.459Z,1.45
2022-11-18T05:26:14.580Z,1.50
2022-11-18T05:28:41.726Z,1.40
2022-11-18T05:31:08.826Z,1.38
2022-11-18T05:33:35.905Z,1.40
2022-11-18T05:36:03.034Z,1.50
2022-11-18T05:38:30.275Z,1.50
2022-11-18T05:40:57.580Z,1.60
2022-11-18T05:43:24.674Z,1.40
2022-11-18T05:45:51.844Z,1.50
2022-11-18T05:48:18.969Z,1.40
2022-11-18T05:50:46.056Z,1.65
2022-11-18T05:53:13.695Z,1.40
2022-11-18T05:55:40.881Z,1.55
2022-11-18T05:58:08.046Z,1.60
2022-11-18T06:00:35.315Z,1.50
2022-11-18T06:03:02.948Z,1.40
2022-11-18T06:05:30.402Z,1.50
2022-11-18T06:07:57.732Z,1.48
2022-11-18T06:10:25.039Z,1.48
2022-11-18T06:12:52.395Z,1.48
2022-11-18T06:15:19.781Z,1.40
2022-11-18T06:17:47.169Z,1.40
2022-11-18T06:20:14.664Z,1.40
2022-11-18T06:22:46.313Z,1.40
2022-11-18T06:25:14.009Z,1.30
2022-11-18T06:27:41.314Z,1.50
2022-11-18T06:30:08.686Z,1.52
2022-11-18T06:32:35.953Z,1.70
2022-11-18T06:35:03.434Z,1.40
2022-11-18T06:37:30.951Z,1.40
2022-11-18T06:39:58.208Z,1.55
2022-11-18T06:42:47.380Z,1.30
2022-11-18T06:45:14.838Z,1.40
2022-11-18T06:47:42.146Z,1.30
2022-11-18T06:50:09.461Z,1.38
2022-11-18T06:52:36.800Z,1.33
2022-11-18T06:55:36.031Z,1.70
2022-11-18T06:58:03.506Z,1.45
2022-11-18T07:00:30.880Z,1.60
2022-11-18T07:02:58.368Z,1.50
2022-11-18T07:05:48.024Z,1.40
2022-11-18T07:08:18.374Z,1.50
2022-11-18T07:10:45.855Z,1.30
2022-11-18T07:13:24.615Z,1.50
2022-11-18T07:15:54.475Z,1.55
2022-11-18T07:18:22.146Z,1.38
2022-11-18T07:20:52.643Z,1.70
2022-11-18T07:23:20.193Z,1.40
2022-11-18T07:25:51.330Z,1.55
2022-11-18T07:28:24.086Z,1.42
2022-11-18T07:30:54.235Z,1.38
2022-11-18T07:33:21.670Z,1.40
2022-11-18T07:35:49.022Z,1.40
2022-11-18T07:38:16.340Z,1.42
2022-11-18T07:40:43.705Z,1.50
2022-11-18T07:43:38.660Z,1.50
2022-11-18T07:46:57.793Z,1.20
2022-11-18T07:49:52.167Z,1.42
2022-11-18T07:52:32.675Z,1.50
2022-11-18T07:55:03.134Z,1.60
2022-11-18T07:57:30.570Z,1.55
2022-11-18T07:59:59.525Z,1.48
2022-11-18T08:02:26.909Z,1.30
2022-11-18T08:04:54.525Z,1.70
2022-11-18T08:07:22.140Z,1.48
2022-11-18T08:09:49.576Z,1.40
2022-11-18T08:12:16.818Z,1.38
2022-11-18T08:14:44.069Z,1.38
2022-11-18T08:17:11.322Z,1.50
2022-11-18T08:19:38.611Z,1.27
2022-11-18T08:22:05.957Z,1.40
2022-11-18T08:24:33.283Z,1.50
2022-11-18T08:27:00.736Z,1.30
2022-11-18T08:29:28.479Z,1.50
2022-11-18T08:31:56.394Z,1.40
2022-11-18T08:34:24.026Z,1.25
2022-11-18T08:36:58.656Z,1.30
2022-11-18T08:39:26.629Z,1.23
2022-11-18T08:41:56.585Z,1.25
2022-11-18T08:44:25.219Z,1.40
2022-11-18T08:46:55.155Z,1.38
2022-11-18T08:49:22.595Z,1.40
2022-11-18T08:54:42.998Z,1.33
2022-11-18T08:57:10.384Z,1.50
2022-11-18T08:59:38.213Z,1.40
2022-11-18T09:02:05.636Z,1.20
2022-11-18T09:04:33.067Z,1.20
2022-11-18T09:07:00.642Z,1.25
2022-11-18T09:09:28.052Z,1.27
2022-11-18T09:11:55.405Z,1.25
2022-11-18T09:17:10.126Z,1.30
2022-11-18T09:19:47.327Z,1.40
2022-11-18T09:22:17.720Z,1.20
2022-11-18T09:24:48.152Z,1.20
2022-11-18T09:27:17.503Z,1.45
2022-11-18T09:29:45.083Z,1.17
2022-11-18T09:32:12.667Z,1.27
2022-11-18T09:34:40.104Z,1.30
2022-11-18T09:37:07.409Z,1.25
2022-11-18T09:39:37.677Z,1.30
2022-11-18T09:42:05.250Z,1.17
2022-11-18T09:44:32.613Z,1.10
2022-11-18T09:47:02.394Z,1.30
2022-11-18T09:49:29.854Z,1.30
2022-11-18T09:51:57.422Z,1.13
2022-11-18T09:54:25.080Z,1.10
2022-11-18T09:57:12.446Z,1.10
2022-11-18T10:06:07.358Z,1.13
2022-11-18T10:08:34.831Z,1.15
2022-11-18T10:11:02.577Z,1.10
2022-11-18T10:13:29.922Z,1.10
2022-11-18T10:16:14.522Z,0.98
2022-11-18T10:21:31.921Z,1.10
2022-11-18T10:24:02.250Z,1.10
2022-11-18T10:26:29.636Z,1.38
2022-11-18T10:28:57.126Z,1.10
2022-11-18T10:31:24.516Z,1.15
2022-11-18T10:33:55.048Z,1.23
2022-11-18T10:36:24.867Z,1.23
2022-11-18T10:39:03.738Z,1.30
2022-11-18T10:41:31.192Z,1.08
2022-11-18T10:43:58.912Z,1.20
2022-11-18T10:46:26.459Z,1.08
2022-11-18T10:48:53.729Z,1.20
2022-11-18T10:51:20.993Z,1.15
2022-11-18T10:53:48.348Z,1.20
2022-11-18T10:56:21.520Z,1.08
2022-11-18T10:58:49.304Z,1.10
2022-11-18T11:01:16.892Z,1.15
2022-11-18T11:03:44.186Z,0.98
2022-11-18T11:06:11.509Z,1.20
2022-11-18T11:08:38.852Z,1.02
2022-11-18T11:11:06.126Z,0.90
2022-11-18T11:13:33.426Z,1.15
2022-11-18T11:16:00.879Z,1.02
2022-11-18T11:18:43.821Z,1.30
2022-11-18T11:21:11.158Z,1.00
2022-11-18T11:23:38.485Z,1.10
2022-11-18T11:28:56.115Z,1.10
2022-11-18T11:31:26.322Z,0.90
2022-11-18T11:33:53.561Z,1.05
2022-11-18T11:36:23.293Z,1.10
2022-11-18T11:38:50.745Z,0.90
2022-11-18T11:41:20.496Z,1.02
2022-11-18T11:43:47.751Z,1.00
2022-11-18T11:46:18.169Z,1.10
2022-11-18T11:48:45.529Z,1.00
2022-11-18T11:51:14.268Z,1.10
2022-11-18T11:53:44.101Z,1.13
2022-11-18T11:56:11.447Z,1.30
2022-11-18T12:05:10.317Z,1.10
2022-11-18T12:08:12.998Z,0.93
2022-11-18T12:10:53.281Z,1.30
2022-11-18T12:14:12.032Z,1.10
2022-11-18T12:20:34.900Z,1.50
2022-11-18T12:23:06.303Z,1.00
2022-11-18T12:25:36.048Z,1.15
2022-11-18T12:31:03.681Z,0.85
2022-11-18T12:36:49.378Z,1.00
2022-11-18T12:39:17.769Z,1.00
2022-11-18T12:42:06.524Z,0.90
2022-11-18T12:44:45.050Z,1.10
2022-11-18T12:47:14.756Z,0.90
2022-11-18T12:49:45.183Z,0.93
2022-11-18T12:52:12.666Z,1.02
2022-11-18T12:57:33.242Z,0.80
2022-11-18T13:00:00.767Z,0.90
2022-11-18T13:02:32.367Z,0.80
2022-11-18T13:05:26.824Z,1.00
2022-11-18T13:08:17.356Z,0.80
2022-11-18T13:10:45.735Z,0.90
2022-11-18T13:13:15.642Z,0.90
2022-11-18T13:16:04.867Z,0.90
2022-11-18T13:20:59.499Z,0.90
2022-11-18T13:26:45.447Z,1.00
2022-11-18T13:29:16.265Z,0.80
2022-11-18T13:31:44.319Z,0.80
2022-11-18T13:34:13.807Z,0.75
2022-11-18T13:36:46.104Z,0.88
2022-11-18T13:39:13.587Z,0.80
2022-11-18T13:42:55.136Z,0.77
2022-11-18T13:45:14.821Z,0.90
2022-11-18T13:47:44.428Z,0.90
2022-11-18T13:50:11.894Z,0.90
2022-11-18T13:52:39.765Z,0.80
2022-11-18T13:55:10.380Z,0.80
2022-11-18T13:57:40.767Z,0.80
2022-11-18T14:00:08.776Z,0.77
2022-11-18T14:02:36.605Z,0.90
2022-11-18T14:05:06.559Z,0.85
2022-11-18T14:07:39.425Z,0.90
2022-11-18T14:10:07.074Z,0.75
2022-11-18T14:12:43.566Z,0.80
2022-11-18T14:15:12.535Z,0.80
2022-11-18T14:17:40.258Z,0.90
2022-11-18T14:20:08.865Z,0.73
2022-11-18T14:22:39.214Z,0.90
2022-11-18T14:25:09.276Z,0.80
2022-11-18T14:27:42.253Z,0.80
2022-11-18T14:30:13.019Z,0.82
2022-11-18T14:32:45.932Z,0.85
2022-11-18T14:35:22.337Z,0.80
2022-11-18T14:38:35.531Z,0.80
2022-11-18T14:40:57.992Z,0.77
2022-11-18T14:43:25.369Z,0.80
2022-11-18T14:45:52.888Z,0.90
2022-11-18T14:51:31.052Z,0.80
2022-11-18T14:54:04.412Z,0.80
2022-11-18T14:56:35.906Z,0.80
2022-11-18T14:59:03.232Z,1.00
2022-11-18T15:01:31.506Z,0.80
2022-11-18T15:03:58.986Z,0.85
2022-11-18T15:06:27.222Z,0.80
2022-11-18T15:08:54.689Z,0.80
2022-11-18T15:11:22.236Z,0.80
2022-11-18T15:13:49.809Z,0.90
2022-11-18T15:16:17.221Z,0.80
2022-11-18T15:18:44.750Z,0.70
2022-11-18T15:21:12.172Z,0.80
2022-11-18T15:23:39.767Z,0.70
2022-11-18T15:32:17.676Z,0.70
2022-11-18T15:34:44.916Z,0.85
2022-11-18T15:43:48.709Z,0.70
2022-11-18T15:46:16.267Z,0.75
2022-11-18T15:48:44.800Z,0.80
2022-11-18T15:51:12.599Z,0.80
2022-11-18T15:53:40.021Z,0.77
2022-11-18T15:56:07.451Z,0.90
2022-11-18T15:58:36.157Z,0.80
2022-11-18T16:01:31.058Z,0.90
2022-11-18T16:03:58.855Z,0.77
2022-11-18T16:06:26.442Z,0.95
2022-11-18T16:08:59.259Z,0.70
2022-11-18T16:11:53.782Z,0.90
2022-11-18T16:17:53.751Z,0.80
2022-11-18T16:20:24.249Z,1.00
2022-11-18T16:22:54.206Z,0.90
2022-11-18T16:25:24.901Z,1.10
2022-11-18T16:31:17.868Z,0.80
2022-11-18T16:44:34.945Z,1.13
2022-11-18T16:47:02.189Z,1.40
2022-11-18T16:49:29.364Z,1.10
2022-11-18T16:51:56.458Z,1.20
2022-11-18T16:54:23.540Z,1.30
2022-11-18T16:56:50.649Z,1.38
2022-11-18T16:59:17.974Z,0.93
2022-11-18T17:01:45.342Z,1.15
2022-11-18T17:04:14.227Z,0.98
2022-11-18T17:06:44.258Z,1.23
2022-11-18T17:09:11.405Z,1.20
2022-11-18T17:11:39.019Z,1.30
2022-11-18T17:14:06.324Z,1.02
2022-11-18T17:16:33.455Z,1.17
2022-11-18T17:19:00.948Z,1.20
2022-11-18T17:21:28.133Z,1.60
2022-11-18T17:23:55.204Z,1.20
2022-11-18T17:26:22.272Z,1.00
2022-11-18T17:28:49.401Z,1.20
2022-11-18T17:31:16.618Z,1.20
2022-11-18T17:33:43.774Z,1.58
2022-11-18T17:36:11.010Z,1.40
2022-11-18T17:38:38.137Z,1.15
2022-11-18T17:41:05.363Z,1.45
2022-11-18T17:43:32.456Z,1.30
2022-11-18T17:46:00.233Z,1.33
2022-11-18T17:48:27.359Z,1.50
2022-11-18T17:50:54.452Z,1.42
2022-11-18T17:53:21.530Z,1.40
2022-11-18T17:55:48.639Z,1.35
2022-11-18T17:58:15.867Z,1.30
2022-11-18T18:00:43.047Z,1.25
2022-11-18T18:03:10.130Z,1.85
2022-11-18T18:05:37.208Z,1.50
2022-11-18T18:08:06.236Z,1.13
2022-11-18T18:10:33.306Z,1.65
2022-11-18T18:13:19.232Z,1.25
2022-11-18T18:15:46.288Z,1.48
2022-11-18T18:18:13.401Z,1.70
2022-11-18T18:20:40.489Z,1.63
2022-11-18T18:23:07.585Z,1.58
2022-11-18T18:25:34.671Z,1.83
2022-11-18T18:28:02.554Z,1.23
2022-11-18T18:30:29.699Z,1.42
2022-11-18T18:32:56.773Z,1.63
2022-11-18T18:35:34.194Z,1.50
2022-11-18T18:38:01.301Z,1.75
2022-11-18T18:40:36.396Z,1.30
2022-11-18T18:43:12.689Z,1.80
2022-11-18T18:45:58.769Z,1.25
2022-11-18T18:48:26.897Z,1.38
2022-11-18T18:50:54.240Z,1.50
2022-11-18T18:53:21.352Z,1.65
2022-11-18T18:55:48.470Z,1.65
2022-11-18T18:58:15.620Z,1.40
2022-11-18T19:00:42.705Z,1.33
2022-11-18T19:03:09.815Z,1.50
2022-11-18T19:06:12.273Z,1.73
2022-11-18T19:08:24.015Z,1.67
2022-11-18T19:10:51.170Z,1.30
2022-11-18T19:13:18.258Z,1.40
2022-11-18T19:15:45.333Z,1.52
2022-11-18T19:18:12.502Z,1.50
2022-11-18T19:20:39.721Z,1.60
2022-11-18T19:23:10.392Z,1.42
2022-11-18T19:25:37.910Z,2.55
2022-11-18T19:28:05.005Z,1.42
2022-11-18T19:30:32.644Z,1.55
2022-11-18T19:32:59.738Z,1.80
2022-11-18T19:38:13.934Z,1.50
2022-11-18T19:40:41.084Z,1.80
2022-11-18T19:43:08.180Z,1.42
2022-11-18T19:45:35.273Z,1.40
2022-11-18T19:48:03.447Z,1.77
2022-11-18T19:50:30.589Z,1.70
2022-11-18T19:52:57.670Z,2.88
2022-11-18T19:55:24.768Z,2.70
2022-11-18T19:57:51.900Z,3.97
2022-11-18T20:00:19.025Z,3.65
2022-11-18T20:02:46.157Z,3.45
2022-11-18T20:05:31.772Z,2.80
2022-11-18T20:07:58.874Z,2.97
2022-11-18T20:10:26.075Z,2.80
2022-11-18T20:12:53.177Z,2.45
2022-11-18T20:15:20.554Z,2.90
2022-11-18T20:17:47.655Z,2.70
2022-11-18T20:20:15.719Z,2.50
2022-11-18T20:22:42.860Z,2.60
2022-11-18T20:25:10.056Z,2.47
2022-11-18T20:27:37.187Z,2.78
2022-11-18T20:30:04.317Z,2.55
2022-11-18T20:32:31.437Z,2.38
2022-11-18T20:34:58.600Z,2.30
2022-11-18T20:37:28.141Z,2.22
2022-11-18T20:39:55.570Z,2.53
2022-11-18T20:42:41.435Z,2.50
2022-11-18T20:45:08.506Z,1.70
2022-11-18T20:47:35.605Z,2.67
2022-11-18T20:50:02.763Z,2.67
2022-11-18T20:52:29.911Z,2.72
2022-11-18T20:55:00.170Z,2.80
2022-11-18T20:57:31.299Z,2.50
2022-11-18T20:59:58.381Z,2.47
2022-11-18T21:02:25.496Z,2.60
2022-11-18T21:04:52.630Z,2.38
2022-11-18T21:07:19.895Z,2.75
2022-11-18T21:09:47.892Z,2.03
2022-11-18T21:12:15.232Z,2.70
2022-11-18T21:14:42.389Z,2.17
2022-11-18T21:17:09.528Z,2.83
2022-11-18T21:19:36.655Z,3.45
2022-11-18T21:22:04.613Z,3.25
2022-11-18T21:24:31.785Z,2.83
2022-11-18T21:26:58.948Z,2.58
2022-11-18T21:29:26.857Z,2.47
2022-11-18T21:31:53.983Z,2.83
2022-11-18T21:34:21.169Z,2.97
2022-11-18T21:36:54.061Z,3.00
2022-11-18T21:39:22.041Z,2.95
2022-11-18T21:41:54.844Z,2.70
2022-11-18T21:44:23.196Z,2.75
2022-11-18T21:46:50.493Z,2.58
2022-11-18T21:49:17.942Z,2.80
2022-11-18T21:51:45.555Z,2.75
2022-11-18T21:54:15.353Z,2.53
2022-11-18T21:56:42.457Z,2.72
2022-11-18T21:59:09.554Z,2.50
2022-11-18T22:01:36.682Z,2.33
2022-11-18T22:04:03.875Z,2.85
2022-11-18T22:06:32.520Z,3.22
2022-11-18T22:08:59.649Z,2.80
2022-11-18T22:11:26.902Z,2.60
2022-11-18T22:13:54.020Z,2.67
2022-11-18T22:16:22.079Z,2.85
2022-11-18T22:18:54.720Z,2.50
2022-11-18T22:21:23.493Z,2.40
2022-11-18T22:23:50.605Z,2.20
2022-11-18T22:26:17.716Z,2.42
2022-11-18T22:28:44.797Z,2.47
2022-11-18T22:31:11.880Z,2.40
2022-11-18T22:33:38.976Z,2.50
2022-11-18T22:36:06.258Z,2.80
2022-11-18T22:38:33.359Z,2.60
2022-11-18T22:41:00.682Z,2.92
2022-11-18T22:43:27.754Z,2.42
2022-11-18T22:45:54.820Z,2.53
2022-11-18T22:48:21.894Z,2.58
2022-11-18T22:50:48.971Z,2.40
2022-11-18T22:53:16.040Z,2.28
2022-11-18T22:55:43.128Z,2.15
2022-11-18T22:58:10.227Z,2.30
2022-11-18T23:00:37.880Z,2.45
2022-11-18T23:03:04.953Z,2.30
2022-11-18T23:05:32.099Z,2.38
2022-11-18T23:07:59.222Z,2.10
2022-11-18T23:10:26.390Z,2.20
2022-11-18T23:13:12.060Z,2.17
2022-11-18T23:15:39.143Z,2.30
2022-11-18T23:18:11.188Z,2.22
2022-11-18T23:20:38.762Z,2.20
2022-11-18T23:23:05.894Z,2.28
2022-11-18T23:25:33.010Z,2.25
2022-11-18T23:28:00.095Z,2.13
2022-11-18T23:30:27.161Z,2.40
2022-11-18T23:32:54.878Z,2.20
2022-11-18T23:35:22.036Z,2.30
2022-11-18T23:37:49.302Z,2.38
2022-11-18T23:40:16.365Z,2.10
2022-11-18T23:42:43.446Z,2.42
2022-11-18T23:45:10.629Z,2.17
2022-11-18T23:47:37.741Z,1.98
2022-11-18T23:50:04.828Z,1.90
2022-11-18T23:52:31.896Z,1.92
2022-11-18T23:55:01.355Z,2.30
2022-11-18T23:57:28.530Z,2.13
2022-11-18T23:59:55.625Z,2.20
